Time;durP1;ratioP1;P1;durP2;ratioP2;P2;SDS_P1;SDS_P2;PMS_P1;PMS_P2;Temp;Humidity;BMP_temperature;BMP_pressure;BME280_temperature;BME280_humidity;BME280_pressure;Samples;Min_cycle;Max_cycle;Signal;HPM_P1;HPM_P2
2021/09/08 00:00:20;;;;;;;12.55;9.80;;;;;;;;;;5051664;28;20211;-84
2021/09/08 00:02:48;;;;;;;12.48;10.00;;;;;;;;;;5034460;28;20195;-84
2021/09/08 00:05:15;;;;;;;13.15;10.25;;;;;;;;;;5052426;28;20246;-83
2021/09/08 00:07:41;;;;;;;11.38;10.27;;;;;;;;;;5034031;28;20199;-83
2021/09/08 00:10:09;;;;;;;11.07;9.98;;;;;;;;;;5034539;28;20694;-84
2021/09/08 00:12:35;;;;;;;12.68;9.82;;;;;;;;;;5033814;28;20277;-83
2021/09/08 00:15:03;;;;;;;11.95;10.55;;;;;;;;;;5034645;28;20730;-84
2021/09/08 00:17:29;;;;;;;12.93;10.33;;;;;;;;;;5052299;28;20590;-84
2021/09/08 00:19:57;;;;;;;12.50;10.70;;;;;;;;;;5051491;28;20239;-83
2021/09/08 00:22:24;;;;;;;13.32;10.05;;;;;;;;;;5033887;28;20210;-84
2021/09/08 00:24:50;;;;;;;12.00;10.63;;;;;;;;;;5051865;28;20246;-83
2021/09/08 00:27:17;;;;;;;12.03;10.77;;;;;;;;;;5034069;28;20219;-84
2021/09/08 00:29:44;;;;;;;12.82;10.40;;;;;;;;;;5051683;28;20227;-84
2021/09/08 00:32:11;;;;;;;14.57;10.05;;;;;;;;;;5033948;28;20204;-84
2021/09/08 00:34:37;;;;;;;10.43;9.40;;;;;;;;;;5033964;28;20243;-84
2021/09/08 00:37:05;;;;;;;12.23;10.83;;;;;;;;;;5055647;28;20203;-83
2021/09/08 00:39:32;;;;;;;12.10;9.77;;;;;;;;;;5055561;28;20671;-84
2021/09/08 00:41:59;;;;;;;11.82;10.32;;;;;;;;;;5038273;28;20208;-84
2021/09/08 00:44:27;;;;;;;16.07;10.00;;;;;;;;;;5056608;28;20722;-85
2021/09/08 00:46:57;;;;;;;11.75;10.50;;;;;;;;;;5056224;28;20241;-84
2021/09/08 00:49:23;;;;;;;10.90;9.80;;;;;;;;;;5038068;28;20184;-83
2021/09/08 00:51:51;;;;;;;11.27;10.15;;;;;;;;;;5056116;28;20239;-84
2021/09/08 00:54:20;;;;;;;11.70;9.53;;;;;;;;;;5055877;28;20655;-84
2021/09/08 00:56:48;;;;;;;12.80;10.30;;;;;;;;;;5037429;28;20199;-83
2021/09/08 00:59:15;;;;;;;12.67;10.23;;;;;;;;;;5037655;28;20192;-84
2021/09/08 01:01:41;;;;;;;11.52;9.90;;;;;;;;;;5038138;28;20547;-84
2021/09/08 01:04:08;;;;;;;11.60;10.50;;;;;;;;;;5038138;28;20524;-84
2021/09/08 01:06:35;;;;;;;14.37;10.13;;;;;;;;;;5056124;28;20214;-84
2021/09/08 01:09:04;;;;;;;12.00;10.00;;;;;;;;;;5056273;28;20180;-83
2021/09/08 01:11:32;;;;;;;11.23;10.07;;;;;;;;;;5055547;28;20183;-84
2021/09/08 01:13:58;;;;;;;13.40;10.43;;;;;;;;;;5055286;28;20235;-84
2021/09/08 01:16:25;;;;;;;11.60;9.93;;;;;;;;;;5055361;28;20238;-84
2021/09/08 01:18:52;;;;;;;11.87;10.67;;;;;;;;;;5037241;28;20671;-84
2021/09/08 01:21:18;;;;;;;12.47;9.90;;;;;;;;;;5037760;28;20199;-84
2021/09/08 01:23:47;;;;;;;13.40;10.03;;;;;;;;;;5037859;28;20256;-84
2021/09/08 01:26:14;;;;;;;11.60;10.33;;;;;;;;;;5055213;28;20202;-83
2021/09/08 01:28:40;;;;;;;13.97;10.67;;;;;;;;;;5037443;28;20679;-84
2021/09/08 01:31:07;;;;;;;11.63;10.47;;;;;;;;;;5054949;28;20254;-84
2021/09/08 01:33:34;;;;;;;13.27;10.37;;;;;;;;;;5037425;28;20227;-84
2021/09/08 01:36:01;;;;;;;12.97;10.80;;;;;;;;;;5037437;28;20207;-84
2021/09/08 01:38:27;;;;;;;13.30;10.93;;;;;;;;;;5037060;28;20523;-84
2021/09/08 01:40:55;;;;;;;11.40;10.23;;;;;;;;;;5055216;28;20211;-84
2021/09/08 01:43:23;;;;;;;11.70;10.60;;;;;;;;;;5054808;28;20789;-84
2021/09/08 01:45:49;;;;;;;11.90;10.67;;;;;;;;;;5036791;28;20568;-84
2021/09/08 01:48:16;;;;;;;12.57;10.07;;;;;;;;;;5037237;28;20258;-84
2021/09/08 01:50:43;;;;;;;11.80;10.70;;;;;;;;;;5054989;28;20232;-84
2021/09/08 01:53:09;;;;;;;14.37;10.80;;;;;;;;;;5054986;28;20179;-84
2021/09/08 01:55:36;;;;;;;12.63;10.70;;;;;;;;;;5036970;28;20231;-84
2021/09/08 01:58:04;;;;;;;12.17;10.87;;;;;;;;;;5054331;28;20222;-84
2021/09/08 02:00:31;;;;;;;11.90;10.77;;;;;;;;;;5036878;28;20210;-84
2021/09/08 02:02:58;;;;;;;12.90;11.47;;;;;;;;;;5036802;28;20199;-84
2021/09/08 02:05:25;;;;;;;12.77;10.73;;;;;;;;;;5036784;28;20252;-83
2021/09/08 02:07:52;;;;;;;15.87;11.17;;;;;;;;;;5054974;28;20571;-84
2021/09/08 02:10:19;;;;;;;12.53;11.20;;;;;;;;;;5055034;28;20176;-84
2021/09/08 02:12:46;;;;;;;12.70;11.40;;;;;;;;;;5055336;28;20172;-84
2021/09/08 02:15:14;;;;;;;13.30;10.80;;;;;;;;;;5055137;28;20227;-84
2021/09/08 02:17:42;;;;;;;15.13;11.43;;;;;;;;;;5054689;28;20207;-84
2021/09/08 02:20:09;;;;;;;12.77;11.47;;;;;;;;;;5036873;28;20203;-84
2021/09/08 02:22:36;;;;;;;12.27;10.97;;;;;;;;;;5037002;28;20207;-84
2021/09/08 02:25:02;;;;;;;12.93;11.53;;;;;;;;;;5054927;28;20203;-84
2021/09/08 02:27:29;;;;;;;14.03;10.90;;;;;;;;;;5036725;28;20207;-84
2021/09/08 02:29:56;;;;;;;13.93;11.07;;;;;;;;;;5053923;28;20269;-82
2021/09/08 02:32:24;;;;;;;12.83;10.87;;;;;;;;;;5036613;28;20191;-84
2021/09/08 02:34:50;;;;;;;14.80;11.10;;;;;;;;;;5054751;28;20223;-84
2021/09/08 02:37:17;;;;;;;15.40;11.27;;;;;;;;;;5036225;28;20670;-84
2021/09/08 02:39:44;;;;;;;13.40;10.67;;;;;;;;;;5036063;28;20674;-84
2021/09/08 02:42:11;;;;;;;12.83;10.90;;;;;;;;;;5036132;28;20221;-84
2021/09/08 02:44:38;;;;;;;12.30;11.07;;;;;;;;;;5054565;28;20186;-84
2021/09/08 02:47:04;;;;;;;12.23;11.03;;;;;;;;;;5054441;28;20215;-84
2021/09/08 02:49:32;;;;;;;12.03;10.83;;;;;;;;;;5036309;28;20203;-84
2021/09/08 02:51:59;;;;;;;11.60;10.40;;;;;;;;;;5036356;28;20203;-84
2021/09/08 02:54:26;;;;;;;12.83;11.40;;;;;;;;;;5054041;28;20259;-84
2021/09/08 02:56:52;;;;;;;11.60;10.33;;;;;;;;;;5054168;28;20222;-84
2021/09/08 02:59:19;;;;;;;12.47;11.17;;;;;;;;;;5052863;28;20567;-83
2021/09/08 03:01:46;;;;;;;12.77;11.10;;;;;;;;;;5053921;28;20207;-84
2021/09/08 03:04:12;;;;;;;11.73;10.60;;;;;;;;;;5035651;28;20203;-83
2021/09/08 03:06:40;;;;;;;13.33;11.73;;;;;;;;;;5054126;28;20230;-85
2021/09/08 03:09:07;;;;;;;14.47;12.47;;;;;;;;;;5054285;28;20171;-84
2021/09/08 03:11:34;;;;;;;13.83;11.83;;;;;;;;;;5054081;28;20636;-84
2021/09/08 03:14:00;;;;;;;14.67;12.13;;;;;;;;;;5053823;28;20231;-84
2021/09/08 03:16:27;;;;;;;13.53;12.07;;;;;;;;;;5035923;28;20765;-84
2021/09/08 03:18:53;;;;;;;13.63;11.23;;;;;;;;;;5053835;28;20214;-84
2021/09/08 03:21:20;;;;;;;12.43;11.13;;;;;;;;;;5035524;28;20199;-84
2021/09/08 03:23:48;;;;;;;12.37;11.10;;;;;;;;;;5054333;28;20215;-83
2021/09/08 03:26:15;;;;;;;12.40;10.93;;;;;;;;;;5053454;28;20679;-84
2021/09/08 03:28:42;;;;;;;14.87;11.50;;;;;;;;;;5053263;28;20207;-84
2021/09/08 03:31:08;;;;;;;12.50;11.00;;;;;;;;;;5052877;28;20227;-84
2021/09/08 03:33:35;;;;;;;14.17;11.33;;;;;;;;;;5053614;28;20709;-84
2021/09/08 03:36:02;;;;;;;13.47;11.50;;;;;;;;;;5035620;28;20246;-85
2021/09/08 03:38:29;;;;;;;13.83;11.13;;;;;;;;;;5053846;28;20250;-84
2021/09/08 03:40:57;;;;;;;13.13;11.17;;;;;;;;;;5053733;28;20231;-84
2021/09/08 03:43:23;;;;;;;12.10;10.90;;;;;;;;;;5035872;28;20596;-84
2021/09/08 03:45:50;;;;;;;14.50;11.47;;;;;;;;;;5053914;28;20211;-84
2021/09/08 03:48:17;;;;;;;13.00;11.43;;;;;;;;;;5035343;28;20667;-84
2021/09/08 03:50:43;;;;;;;12.93;11.60;;;;;;;;;;5053383;28;20556;-84
2021/09/08 03:53:10;;;;;;;13.93;12.20;;;;;;;;;;5053180;28;20179;-83
2021/09/08 03:55:37;;;;;;;12.93;11.67;;;;;;;;;;5052004;28;20266;-83
2021/09/08 03:58:04;;;;;;;12.87;11.47;;;;;;;;;;5052400;28;20255;-84
2021/09/08 04:00:31;;;;;;;15.47;11.43;;;;;;;;;;5034054;28;20836;-84
2021/09/08 04:02:58;;;;;;;14.70;12.03;;;;;;;;;;5034347;28;20199;-82
2021/09/08 04:05:25;;;;;;;13.10;11.40;;;;;;;;;;5034449;28;20204;-83
2021/09/08 04:07:51;;;;;;;12.90;11.57;;;;;;;;;;5033968;28;20200;-83
2021/09/08 04:10:18;;;;;;;13.80;11.47;;;;;;;;;;5051540;28;20242;-82
2021/09/08 04:12:45;;;;;;;13.57;11.30;;;;;;;;;;5051330;28;20679;-82
2021/09/08 04:15:13;;;;;;;14.70;11.30;;;;;;;;;;5033765;28;20706;-82
2021/09/08 04:17:40;;;;;;;15.67;11.70;;;;;;;;;;5051660;28;20253;-81
2021/09/08 04:20:08;;;;;;;13.73;11.30;;;;;;;;;;5051938;28;20191;-82
2021/09/08 04:22:35;;;;;;;13.47;12.03;;;;;;;;;;5033787;28;20243;-81
2021/09/08 04:25:01;;;;;;;15.23;11.57;;;;;;;;;;5034132;28;20651;-81
2021/09/08 04:27:28;;;;;;;12.63;11.40;;;;;;;;;;5051908;28;20180;-82
2021/09/08 04:29:55;;;;;;;12.60;11.20;;;;;;;;;;5030790;28;20228;-82
2021/09/08 04:32:23;;;;;;;12.50;11.20;;;;;;;;;;5031546;28;20196;-83
2021/09/08 04:34:49;;;;;;;13.23;11.60;;;;;;;;;;5032517;28;20259;-83
2021/09/08 04:37:16;;;;;;;13.17;11.77;;;;;;;;;;5031207;28;20203;-83
2021/09/08 04:39:44;;;;;;;13.50;11.83;;;;;;;;;;5031115;28;20204;-83
2021/09/08 04:42:11;;;;;;;14.30;11.47;;;;;;;;;;5031595;28;20219;-83
2021/09/08 04:44:37;;;;;;;14.80;11.97;;;;;;;;;;5032694;28;20557;-83
2021/09/08 04:47:04;;;;;;;13.43;12.00;;;;;;;;;;5031399;28;20222;-83
2021/09/08 04:49:32;;;;;;;14.77;12.17;;;;;;;;;;5032023;28;20193;-84
2021/09/08 04:51:59;;;;;;;16.00;12.27;;;;;;;;;;5033351;28;20192;-83
2021/09/08 04:54:25;;;;;;;13.97;11.67;;;;;;;;;;5031723;28;20200;-86
2021/09/08 04:56:52;;;;;;;14.77;12.27;;;;;;;;;;5031555;28;20575;-84
2021/09/08 04:59:18;;;;;;;16.60;12.07;;;;;;;;;;5031521;28;20204;-83
2021/09/08 05:01:45;;;;;;;16.80;12.40;;;;;;;;;;5031022;28;20346;-84
2021/09/08 05:04:12;;;;;;;17.63;11.83;;;;;;;;;;5031575;28;20246;-85
2021/09/08 05:06:40;;;;;;;14.17;11.80;;;;;;;;;;5033695;28;20683;-84
2021/09/08 05:09:07;;;;;;;14.17;12.17;;;;;;;;;;5033538;28;20515;-85
2021/09/08 05:11:33;;;;;;;17.43;12.33;;;;;;;;;;5033424;28;20606;-84
2021/09/08 05:14:00;;;;;;;15.47;12.67;;;;;;;;;;5032767;28;20209;-83
2021/09/08 05:16:27;;;;;;;14.83;13.23;;;;;;;;;;5031418;28;20236;-83
2021/09/08 05:18:53;;;;;;;15.70;12.53;;;;;;;;;;5031416;28;20211;-84
2021/09/08 05:21:20;;;;;;;14.97;12.33;;;;;;;;;;5033480;28;20215;-84
2021/09/08 05:23:48;;;;;;;16.40;12.27;;;;;;;;;;5036542;28;20219;-83
2021/09/08 05:26:15;;;;;;;13.53;11.87;;;;;;;;;;5036249;28;20246;-81
2021/09/08 05:28:41;;;;;;;13.70;12.20;;;;;;;;;;5036625;28;20636;-82
2021/09/08 05:31:08;;;;;;;16.03;12.17;;;;;;;;;;5052390;28;20699;-82
2021/09/08 05:33:35;;;;;;;17.00;12.63;;;;;;;;;;5055121;28;20185;-82
2021/09/08 05:36:01;;;;;;;15.53;13.20;;;;;;;;;;5037227;28;20247;-81
2021/09/08 05:38:29;;;;;;;15.37;12.70;;;;;;;;;;5037199;28;20245;-82
2021/09/08 05:40:57;;;;;;;19.03;13.63;;;;;;;;;;5038277;28;20194;-82
2021/09/08 05:43:24;;;;;;;16.53;13.07;;;;;;;;;;5055195;28;20246;-82
2021/09/08 05:45:50;;;;;;;17.43;12.33;;;;;;;;;;5036970;28;20204;-82
2021/09/08 05:48:17;;;;;;;14.50;12.10;;;;;;;;;;5037108;28;20191;-82
2021/09/08 05:50:44;;;;;;;17.20;12.53;;;;;;;;;;5036452;28;20258;-82
2021/09/08 05:53:10;;;;;;;15.40;12.47;;;;;;;;;;5036779;28;20191;-82
2021/09/08 05:55:37;;;;;;;14.67;13.17;;;;;;;;;;5054884;28;20729;-83
2021/09/08 05:58:05;;;;;;;15.77;12.23;;;;;;;;;;5054224;28;20204;-83
2021/09/08 06:00:32;;;;;;;15.83;12.33;;;;;;;;;;5036253;28;20258;-82
2021/09/08 06:02:58;;;;;;;14.83;12.17;;;;;;;;;;5036911;28;20195;-84
2021/09/08 06:05:25;;;;;;;15.57;12.60;;;;;;;;;;5036755;28;20203;-85
2021/09/08 06:07:52;;;;;;;15.63;12.30;;;;;;;;;;5036781;28;20721;-84
2021/09/08 06:10:20;;;;;;;18.20;12.47;;;;;;;;;;5036746;28;20222;-85
2021/09/08 06:12:47;;;;;;;19.20;11.83;;;;;;;;;;5036765;28;20552;-84
2021/09/08 06:15:16;;;;;;;14.87;12.67;;;;;;;;;;5036908;28;20239;-84
2021/09/08 06:17:42;;;;;;;21.10;13.33;;;;;;;;;;5037108;28;20567;-86
2021/09/08 06:20:09;;;;;;;21.57;13.00;;;;;;;;;;5037524;28;20459;-85
2021/09/08 06:22:36;;;;;;;20.77;12.77;;;;;;;;;;5038285;28;20192;-85
2021/09/08 06:25:03;;;;;;;18.40;13.63;;;;;;;;;;5022871;28;20204;-88
2021/09/08 06:27:30;;;;;;;24.07;13.30;;;;;;;;;;5038312;28;20187;-84
2021/09/08 06:29:56;;;;;;;19.53;13.67;;;;;;;;;;5035638;28;20710;-84
2021/09/08 06:32:24;;;;;;;15.57;13.23;;;;;;;;;;5052981;28;20235;-83
2021/09/08 06:34:51;;;;;;;17.93;13.77;;;;;;;;;;5053062;28;20219;-84
2021/09/08 06:37:18;;;;;;;16.60;14.37;;;;;;;;;;5035569;28;20235;-83
2021/09/08 06:39:45;;;;;;;16.90;13.37;;;;;;;;;;5035695;28;20207;-85
2021/09/08 06:42:11;;;;;;;19.63;14.27;;;;;;;;;;5035260;28;20239;-84
2021/09/08 06:44:38;;;;;;;18.30;14.07;;;;;;;;;;5053952;28;20233;-85
2021/09/08 06:47:05;;;;;;;21.03;14.80;;;;;;;;;;5035408;28;20188;-84
2021/09/08 06:49:33;;;;;;;15.80;14.03;;;;;;;;;;5015265;28;20196;-85
2021/09/08 06:51:59;;;;;;;17.63;14.07;;;;;;;;;;5040355;28;20242;-84
2021/09/08 06:54:26;;;;;;;17.83;13.83;;;;;;;;;;5035761;28;20230;-84
2021/09/08 06:56:53;;;;;;;18.33;14.10;;;;;;;;;;5053363;28;20196;-85
2021/09/08 06:59:20;;;;;;;19.70;15.13;;;;;;;;;;5053328;28;20231;-85
2021/09/08 07:01:48;;;;;;;17.77;14.83;;;;;;;;;;5035149;28;20199;-84
2021/09/08 07:04:15;;;;;;;23.50;15.97;;;;;;;;;;5035054;28;20576;-84
2021/09/08 07:06:43;;;;;;;40.13;27.20;;;;;;;;;;5052893;28;20214;-84
2021/09/08 07:09:10;;;;;;;25.70;16.93;;;;;;;;;;5052803;28;20217;-82
2021/09/08 07:11:36;;;;;;;18.03;15.13;;;;;;;;;;5034714;28;20238;-84
2021/09/08 07:14:03;;;;;;;19.77;15.37;;;;;;;;;;5032901;28;20670;-84
2021/09/08 07:16:30;;;;;;;19.77;15.10;;;;;;;;;;5034411;28;20257;-83
2021/09/08 07:18:57;;;;;;;17.70;15.43;;;;;;;;;;5033830;28;20484;-83
2021/09/08 07:21:23;;;;;;;20.00;16.50;;;;;;;;;;5034457;28;20223;-83
2021/09/08 07:23:51;;;;;;;17.90;15.53;;;;;;;;;;5033119;28;20268;-84
2021/09/08 07:26:18;;;;;;;20.13;15.20;;;;;;;;;;5033585;28;20220;-82
2021/09/08 07:28:45;;;;;;;21.23;16.33;;;;;;;;;;5033401;28;20258;-84
2021/09/08 07:31:11;;;;;;;21.90;16.43;;;;;;;;;;5034064;28;20631;-85
2021/09/08 07:33:38;;;;;;;30.67;17.40;;;;;;;;;;5052473;28;20257;-85
2021/09/08 07:36:05;;;;;;;24.33;16.87;;;;;;;;;;5034768;28;20250;-85
2021/09/08 07:38:32;;;;;;;21.57;16.67;;;;;;;;;;5053378;28;20245;-84
2021/09/08 07:41:00;;;;;;;30.57;17.43;;;;;;;;;;5052668;28;20215;-85
2021/09/08 07:43:27;;;;;;;19.20;15.33;;;;;;;;;;5034016;28;20199;-84
2021/09/08 07:45:53;;;;;;;25.77;16.20;;;;;;;;;;5052527;28;20595;-84
2021/09/08 07:48:21;;;;;;;21.60;16.00;;;;;;;;;;5052933;28;20231;-86
2021/09/08 07:50:48;;;;;;;26.10;15.53;;;;;;;;;;5035612;28;20215;-84
2021/09/08 07:53:14;;;;;;;18.10;15.60;;;;;;;;;;5034242;28;20231;-82
2021/09/08 07:55:41;;;;;;;27.50;17.17;;;;;;;;;;5033958;28;20223;-84
2021/09/08 07:58:09;;;;;;;21.77;16.40;;;;;;;;;;5053050;28;20207;-85
2021/09/08 08:00:36;;;;;;;22.13;16.05;;;;;;;;;;5035733;28;20191;-85
2021/09/08 08:03:03;;;;;;;23.95;15.65;;;;;;;;;;5052627;28;20188;-83
2021/09/08 08:05:30;;;;;;;25.08;15.77;;;;;;;;;;5053092;28;20624;-83
2021/09/08 08:07:57;;;;;;;19.83;15.70;;;;;;;;;;5037135;28;20176;-86
2021/09/08 08:10:24;;;;;;;21.83;14.23;;;;;;;;;;5033867;28;20203;-86
2021/09/08 08:12:51;;;;;;;23.77;14.90;;;;;;;;;;5052478;28;20211;-85
2021/09/08 08:15:19;;;;;;;19.85;14.95;;;;;;;;;;5034842;28;20225;-86
2021/09/08 08:17:46;;;;;;;24.30;14.20;;;;;;;;;;5033917;28;20247;-85
2021/09/08 08:20:14;;;;;;;20.80;15.63;;;;;;;;;;5035457;28;20183;-84
2021/09/08 08:22:41;;;;;;;18.73;15.07;;;;;;;;;;5034024;28;21114;-84
2021/09/08 08:25:09;;;;;;;16.55;14.80;;;;;;;;;;5034037;28;20261;-84
2021/09/08 08:27:36;;;;;;;23.35;15.18;;;;;;;;;;5034784;28;20203;-85
2021/09/08 08:30:03;;;;;;;18.17;15.18;;;;;;;;;;5032195;28;20232;-86
2021/09/08 08:32:31;;;;;;;25.73;15.77;;;;;;;;;;5031709;28;20200;-84
2021/09/08 08:34:58;;;;;;;18.05;15.07;;;;;;;;;;5031859;28;20211;-86
2021/09/08 08:37:24;;;;;;;20.35;15.63;;;;;;;;;;5032719;28;20684;-86
2021/09/08 08:39:51;;;;;;;22.48;13.70;;;;;;;;;;5032411;28;20196;-86
2021/09/08 08:42:20;;;;;;;20.05;14.75;;;;;;;;;;5032965;28;20612;-86
2021/09/08 08:44:47;;;;;;;23.45;13.55;;;;;;;;;;5033618;28;20192;-89
2021/09/08 08:47:14;;;;;;;17.60;13.18;;;;;;;;;;5034200;28;20212;-86
2021/09/08 08:49:42;;;;;;;21.83;12.35;;;;;;;;;;5031846;28;20230;-87
2021/09/08 08:52:09;;;;;;;15.10;12.25;;;;;;;;;;5033321;28;20714;-86
2021/09/08 08:54:35;;;;;;;13.90;12.40;;;;;;;;;;5034152;28;20204;-87
2021/09/08 08:57:02;;;;;;;16.15;12.05;;;;;;;;;;5035043;28;20688;-87
2021/09/08 08:59:29;;;;;;;16.23;11.50;;;;;;;;;;5037121;28;20625;-87
2021/09/08 09:01:55;;;;;;;17.95;11.52;;;;;;;;;;5036532;28;20193;-87
2021/09/08 09:04:22;;;;;;;15.23;11.65;;;;;;;;;;5035591;28;20203;-86
2021/09/08 09:06:51;;;;;;;15.85;11.38;;;;;;;;;;5037514;28;20683;-86
2021/09/08 09:09:18;;;;;;;15.85;10.85;;;;;;;;;;5037588;28;20200;-89
2021/09/08 09:11:47;;;;;;;10.32;8.48;;;;;;;;;;5039178;28;20660;-89
2021/09/08 09:14:14;;;;;;;9.80;8.27;;;;;;;;;;5039303;28;20208;-88
2021/09/08 09:16:41;;;;;;;8.98;8.15;;;;;;;;;;5037150;28;20224;-87
2021/09/08 09:19:09;;;;;;;9.77;8.57;;;;;;;;;;5035166;28;20262;-86
2021/09/08 09:21:36;;;;;;;8.98;8.18;;;;;;;;;;5036653;28;20185;-88
2021/09/08 09:24:06;;;;;;;10.43;8.10;;;;;;;;;;5038498;28;20580;-86
2021/09/08 09:26:34;;;;;;;8.20;7.50;;;;;;;;;;5037646;28;20188;-89
2021/09/08 09:29:07;;;;;;;8.88;8.05;;;;;;;;;;5037666;28;20212;-89
2021/09/08 09:31:34;;;;;;;8.70;7.78;;;;;;;;;;5021101;28;20663;-89
2021/09/08 09:34:01;;;;;;;8.48;7.65;;;;;;;;;;5021190;28;20204;-87
2021/09/08 09:36:30;;;;;;;12.20;7.78;;;;;;;;;;5038554;28;20172;-92
2021/09/08 09:38:57;;;;;;;9.13;8.05;;;;;;;;;;5019604;28;20204;-86
2021/09/08 09:41:31;;;;;;;9.38;7.70;;;;;;;;;;5018705;28;20823;-86
2021/09/08 09:44:06;;;;;;;7.70;6.90;;;;;;;;;;5018402;28;20199;-86
2021/09/08 09:46:32;;;;;;;7.85;7.03;;;;;;;;;;5035826;28;20219;-84
2021/09/08 09:49:01;;;;;;;10.55;8.25;;;;;;;;;;5036255;28;20172;-88
2021/09/08 09:51:28;;;;;;;7.80;7.10;;;;;;;;;;5018549;28;20220;-86
2021/09/08 09:53:54;;;;;;;8.68;7.13;;;;;;;;;;5018664;28;20671;-88
2021/09/08 09:56:21;;;;;;;8.25;7.45;;;;;;;;;;5018944;28;20722;-85
2021/09/08 09:58:49;;;;;;;9.45;6.63;;;;;;;;;;5016701;28;20236;-86
2021/09/08 10:01:17;;;;;;;11.75;7.05;;;;;;;;;;5016368;28;20224;-87
2021/09/08 10:03:44;;;;;;;7.75;6.95;;;;;;;;;;5018694;28;20196;-86
2021/09/08 10:06:11;;;;;;;7.82;7.13;;;;;;;;;;5036487;28;20695;-87
2021/09/08 10:08:40;;;;;;;14.93;7.00;;;;;;;;;;5016868;28;20242;-86
2021/09/08 10:11:09;;;;;;;9.10;6.50;;;;;;;;;;5017085;28;20207;-86
2021/09/08 10:13:38;;;;;;;7.00;5.93;;;;;;;;;;5034577;28;20646;-86
2021/09/08 10:16:07;;;;;;;8.02;6.00;;;;;;;;;;5016649;28;20200;-84
2021/09/08 10:18:34;;;;;;;8.30;6.20;;;;;;;;;;5016892;28;20247;-84
2021/09/08 10:21:02;;;;;;;7.70;6.22;;;;;;;;;;5017211;28;20291;-86
2021/09/08 10:23:29;;;;;;;8.32;5.93;;;;;;;;;;5017165;28;20200;-87
2021/09/08 10:25:56;;;;;;;8.98;6.45;;;;;;;;;;5035791;28;20221;-84
2021/09/08 10:28:25;;;;;;;11.80;5.97;;;;;;;;;;5034832;28;20212;-87
2021/09/08 10:30:52;;;;;;;6.03;5.57;;;;;;;;;;5028467;28;20228;-87
2021/09/08 10:33:20;;;;;;;6.32;5.78;;;;;;;;;;5033282;28;20602;-86
2021/09/08 10:35:47;;;;;;;5.70;5.30;;;;;;;;;;5033413;28;20597;-86
2021/09/08 10:38:16;;;;;;;5.70;5.30;;;;;;;;;;5035425;28;20258;-85
2021/09/08 10:40:43;;;;;;;6.15;5.63;;;;;;;;;;5034028;28;20231;-85
2021/09/08 10:43:10;;;;;;;6.10;5.50;;;;;;;;;;5033856;28;20552;-88
2021/09/08 10:45:48;;;;;;;7.20;5.38;;;;;;;;;;5032818;28;20231;-86
2021/09/08 10:48:33;;;;;;;6.10;5.63;;;;;;;;;;5033804;28;20200;-86
2021/09/08 10:51:01;;;;;;;6.20;5.60;;;;;;;;;;5032535;28;20223;-83
2021/09/08 10:53:32;;;;;;;5.65;5.25;;;;;;;;;;5032528;28;20560;-82
2021/09/08 10:55:59;;;;;;;7.13;5.70;;;;;;;;;;5031775;28;20193;-83
2021/09/08 10:58:41;;;;;;;6.72;5.47;;;;;;;;;;5031171;28;20244;-84
2021/09/08 11:01:14;;;;;;;10.90;5.32;;;;;;;;;;5031119;28;20227;-85
2021/09/08 11:03:43;;;;;;;5.60;5.10;;;;;;;;;;5031296;28;20208;-84
2021/09/08 11:06:11;;;;;;;5.75;4.95;;;;;;;;;;5032872;28;20240;-85
2021/09/08 11:08:37;;;;;;;5.15;4.63;;;;;;;;;;5033206;28;20242;-86
2021/09/08 11:11:08;;;;;;;6.45;4.85;;;;;;;;;;5034804;28;20215;-89
2021/09/08 11:13:34;;;;;;;5.75;5.25;;;;;;;;;;5034659;28;20215;-83
2021/09/08 11:16:01;;;;;;;5.28;4.88;;;;;;;;;;5033319;28;20208;-83
2021/09/08 11:18:35;;;;;;;5.45;4.95;;;;;;;;;;5032683;28;20248;-81
2021/09/08 11:21:03;;;;;;;5.20;4.53;;;;;;;;;;5033541;28;20664;-85
2021/09/08 11:23:32;;;;;;;5.03;4.50;;;;;;;;;;5033423;28;20216;-84
2021/09/08 11:26:04;;;;;;;5.22;4.72;;;;;;;;;;5033514;28;20687;-82
2021/09/08 11:28:31;;;;;;;6.50;5.32;;;;;;;;;;5032147;28;20250;-84
2021/09/08 11:30:58;;;;;;;5.07;4.38;;;;;;;;;;5031518;28;20228;-82
2021/09/08 11:33:34;;;;;;;7.10;4.72;;;;;;;;;;5032685;28;20247;-82
2021/09/08 11:36:00;;;;;;;7.88;4.82;;;;;;;;;;5031470;28;20334;-82
2021/09/08 11:38:28;;;;;;;6.28;4.30;;;;;;;;;;5032584;28;20271;-83
2021/09/08 11:40:57;;;;;;;4.65;4.32;;;;;;;;;;5033081;28;20187;-83
2021/09/08 11:43:31;;;;;;;5.68;4.47;;;;;;;;;;5030907;28;20258;-83
2021/09/08 11:45:58;;;;;;;4.97;4.55;;;;;;;;;;5030737;28;20611;-82
2021/09/08 11:48:28;;;;;;;5.03;4.63;;;;;;;;;;5032443;28;20697;-82
2021/09/08 11:51:00;;;;;;;4.75;4.38;;;;;;;;;;5031272;28;20220;-81
2021/09/08 11:53:27;;;;;;;5.18;4.63;;;;;;;;;;5031412;28;20188;-84
2021/09/08 11:56:04;;;;;;;4.93;4.55;;;;;;;;;;5032301;28;20232;-84
2021/09/08 11:58:32;;;;;;;5.60;4.53;;;;;;;;;;5031407;28;20248;-82
2021/09/08 12:01:00;;;;;;;12.82;4.75;;;;;;;;;;5032656;28;20216;-83
2021/09/08 12:03:27;;;;;;;5.38;4.90;;;;;;;;;;5032230;28;20584;-83
2021/09/08 12:06:06;;;;;;;8.50;4.55;;;;;;;;;;5033348;28;20240;-82
2021/09/08 12:08:33;;;;;;;4.93;4.53;;;;;;;;;;5032512;28;20207;-82
2021/09/08 12:11:00;;;;;;;7.05;4.85;;;;;;;;;;5032369;28;20212;-81
2021/09/08 12:13:28;;;;;;;6.40;4.55;;;;;;;;;;5032239;28;20675;-82
2021/09/08 12:15:57;;;;;;;6.32;4.45;;;;;;;;;;5030741;28;20200;-80
2021/09/08 12:18:24;;;;;;;5.25;4.75;;;;;;;;;;5030321;28;20251;-80
2021/09/08 12:20:50;;;;;;;4.80;4.40;;;;;;;;;;5032512;28;20239;-83
2021/09/08 12:23:28;;;;;;;4.97;4.50;;;;;;;;;;5031921;28;20227;-84
2021/09/08 12:26:08;;;;;;;8.77;4.18;;;;;;;;;;5032557;28;20258;-82
2021/09/08 12:28:35;;;;;;;6.65;4.35;;;;;;;;;;5031858;28;20236;-83
2021/09/08 12:31:19;;;;;;;5.00;4.55;;;;;;;;;;5049992;28;20227;-81
2021/09/08 12:33:53;;;;;;;8.93;4.30;;;;;;;;;;5038467;28;20230;-83
2021/09/08 12:36:20;;;;;;;6.18;4.57;;;;;;;;;;5056611;28;20215;-83
2021/09/08 12:38:50;;;;;;;4.95;4.55;;;;;;;;;;5056360;28;20231;-83
2021/09/08 12:41:17;;;;;;;4.90;4.50;;;;;;;;;;5037771;28;20211;-83
2021/09/08 12:43:46;;;;;;;4.63;4.22;;;;;;;;;;5055818;28;20218;-84
2021/09/08 12:46:13;;;;;;;6.35;4.80;;;;;;;;;;5037825;28;20555;-82
2021/09/08 12:48:41;;;;;;;5.00;4.50;;;;;;;;;;5055700;28;20241;-82
2021/09/08 12:51:08;;;;;;;6.05;4.60;;;;;;;;;;5055202;28;20231;-81
2021/09/08 12:53:35;;;;;;;5.68;3.70;;;;;;;;;;5055743;28;20207;-82
2021/09/08 12:56:02;;;;;;;4.30;4.03;;;;;;;;;;5055900;28;20239;-82
2021/09/08 12:58:29;;;;;;;4.40;4.10;;;;;;;;;;5054614;28;20375;-83
2021/09/08 13:00:55;;;;;;;4.72;4.40;;;;;;;;;;5037673;28;20207;-82
2021/09/08 13:03:22;;;;;;;5.68;4.45;;;;;;;;;;5055269;28;20278;-82
2021/09/08 13:05:50;;;;;;;8.30;4.30;;;;;;;;;;5054826;28;20246;-82
2021/09/08 13:08:18;;;;;;;5.90;4.30;;;;;;;;;;5055535;28;20229;-83
2021/09/08 13:10:45;;;;;;;6.20;4.70;;;;;;;;;;5055438;28;20662;-81
2021/09/08 13:13:12;;;;;;;4.80;4.50;;;;;;;;;;5036447;28;20223;-83
2021/09/08 13:15:39;;;;;;;4.93;4.40;;;;;;;;;;5036935;28;20199;-83
2021/09/08 13:18:06;;;;;;;4.78;4.38;;;;;;;;;;5036420;28;20199;-83
2021/09/08 13:20:33;;;;;;;5.15;4.70;;;;;;;;;;5055282;28;20203;-85
2021/09/08 13:23:01;;;;;;;4.50;4.20;;;;;;;;;;5036664;28;20227;-84
2021/09/08 13:25:28;;;;;;;4.60;4.30;;;;;;;;;;5036674;28;20195;-84
2021/09/08 13:27:55;;;;;;;4.90;4.28;;;;;;;;;;5036781;28;20752;-84
2021/09/08 13:30:22;;;;;;;6.93;4.10;;;;;;;;;;5054483;28;20250;-84
2021/09/08 13:32:49;;;;;;;5.70;4.43;;;;;;;;;;5036761;28;20184;-84
2021/09/08 13:35:16;;;;;;;8.10;4.20;;;;;;;;;;5054679;28;20222;-81
2021/09/08 13:37:43;;;;;;;4.55;4.00;;;;;;;;;;5054129;28;20239;-84
2021/09/08 13:40:12;;;;;;;6.07;4.25;;;;;;;;;;5036734;28;20250;-83
2021/09/08 13:42:38;;;;;;;6.25;4.30;;;;;;;;;;5053891;28;20337;-84
2021/09/08 13:45:06;;;;;;;5.15;4.38;;;;;;;;;;5054954;28;20204;-83
2021/09/08 13:47:33;;;;;;;3.60;3.38;;;;;;;;;;5054487;28;20207;-86
2021/09/08 13:50:00;;;;;;;4.32;4.03;;;;;;;;;;5054450;28;20227;-83
2021/09/08 13:52:26;;;;;;;3.83;3.60;;;;;;;;;;5053715;28;20239;-85
2021/09/08 13:54:54;;;;;;;4.25;4.05;;;;;;;;;;5036106;28;20483;-85
2021/09/08 13:57:22;;;;;;;5.15;3.72;;;;;;;;;;5035595;28;20230;-86
2021/09/08 13:59:49;;;;;;;4.40;3.90;;;;;;;;;;5036162;28;20702;-85
2021/09/08 14:02:16;;;;;;;5.63;3.58;;;;;;;;;;5035949;28;20507;-85
2021/09/08 14:04:42;;;;;;;4.15;3.85;;;;;;;;;;5035985;28;20736;-84
2021/09/08 14:07:09;;;;;;;5.80;3.85;;;;;;;;;;5036225;28;20198;-85
2021/09/08 14:09:36;;;;;;;3.95;3.75;;;;;;;;;;5053898;28;20199;-85
2021/09/08 14:12:02;;;;;;;3.88;3.67;;;;;;;;;;5053317;28;20638;-88
2021/09/08 14:14:31;;;;;;;5.38;3.80;;;;;;;;;;5036284;28;20199;-85
2021/09/08 14:16:57;;;;;;;3.75;3.55;;;;;;;;;;5054466;28;20213;-86
2021/09/08 14:19:24;;;;;;;3.97;3.75;;;;;;;;;;5053372;28;20254;-87
2021/09/08 14:21:51;;;;;;;4.10;3.80;;;;;;;;;;5054618;28;20203;-87
2021/09/08 14:24:17;;;;;;;4.38;3.80;;;;;;;;;;5036666;28;20199;-90
2021/09/08 14:26:45;;;;;;;4.35;3.40;;;;;;;;;;5054972;28;20242;-89